sensor_id;sensor_type;location;lat;lon;timestamp;temperature;humidity
41922;DHT22;27609;51.002;5.354;2024-02-16T00:01:31;13.20;99.90
41922;DHT22;27609;51.002;5.354;2024-02-16T00:03:57;13.20;99.90
41922;DHT22;27609;51.002;5.354;2024-02-16T00:06:22;13.20;99.90
41922;DHT22;27609;51.002;5.354;2024-02-16T00:08:48;13.30;99.90
41922;DHT22;27609;51.002;5.354;2024-02-16T00:11:14;13.30;99.90
41922;DHT22;27609;51.002;5.354;2024-02-16T00:13:40;13.30;99.90
41922;DHT22;27609;51.002;5.354;2024-02-16T00:16:05;13.30;99.90
41922;DHT22;27609;51.002;5.354;2024-02-16T00:18:31;13.30;99.90
41922;DHT22;27609;51.002;5.354;2024-02-16T00:20:57;13.30;99.90
41922;DHT22;27609;51.002;5.354;2024-02-16T00:23:22;13.30;99.90
41922;DHT22;27609;51.002;5.354;2024-02-16T00:25:50;13.40;99.90
41922;DHT22;27609;51.002;5.354;2024-02-16T00:28:16;13.30;99.90
41922;DHT22;27609;51.002;5.354;2024-02-16T00:30:42;13.30;99.90
41922;DHT22;27609;51.002;5.354;2024-02-16T00:33:07;13.30;99.90
41922;DHT22;27609;51.002;5.354;2024-02-16T00:35:33;13.30;99.90
41922;DHT22;27609;51.002;5.354;2024-02-16T00:38:00;13.30;99.90
41922;DHT22;27609;51.002;5.354;2024-02-16T00:40:25;13.30;99.90
41922;DHT22;27609;51.002;5.354;2024-02-16T00:42:52;13.40;99.90
41922;DHT22;27609;51.002;5.354;2024-02-16T00:45:17;13.30;99.90
41922;DHT22;27609;51.002;5.354;2024-02-16T00:47:43;13.30;99.90
41922;DHT22;27609;51.002;5.354;2024-02-16T00:50:11;13.30;99.90
41922;DHT22;27609;51.002;5.354;2024-02-16T00:52:37;13.30;99.90
41922;DHT22;27609;51.002;5.354;2024-02-16T00:55:04;13.20;99.90
41922;DHT22;27609;51.002;5.354;2024-02-16T00:57:30;13.30;99.90
41922;DHT22;27609;51.002;5.354;2024-02-16T00:59:55;13.20;99.90
41922;DHT22;27609;51.002;5.354;2024-02-16T01:02:21;13.10;99.90
41922;DHT22;27609;51.002;5.354;2024-02-16T01:04:47;13.00;99.90
41922;DHT22;27609;51.002;5.354;2024-02-16T01:07:15;12.90;99.90
41922;DHT22;27609;51.002;5.354;2024-02-16T01:09:41;12.90;99.90
41922;DHT22;27609;51.002;5.354;2024-02-16T01:12:07;12.90;99.90
41922;DHT22;27609;51.002;5.354;2024-02-16T01:14:33;12.90;99.90
41922;DHT22;27609;51.002;5.354;2024-02-16T01:16:59;12.90;99.90
41922;DHT22;27609;51.002;5.354;2024-02-16T01:19:25;12.80;99.90
41922;DHT22;27609;51.002;5.354;2024-02-16T01:21:50;12.80;99.90
41922;DHT22;27609;51.002;5.354;2024-02-16T01:24:19;12.90;99.90
41922;DHT22;27609;51.002;5.354;2024-02-16T01:26:46;12.80;99.90
41922;DHT22;27609;51.002;5.354;2024-02-16T01:29:12;12.90;99.90
41922;DHT22;27609;51.002;5.354;2024-02-16T01:31:37;12.80;99.90
41922;DHT22;27609;51.002;5.354;2024-02-16T01:34:03;12.80;99.90
41922;DHT22;27609;51.002;5.354;2024-02-16T01:36:29;12.80;99.90
41922;DHT22;27609;51.002;5.354;2024-02-16T01:38:54;12.80;99.90
41922;DHT22;27609;51.002;5.354;2024-02-16T01:41:20;12.80;99.90
41922;DHT22;27609;51.002;5.354;2024-02-16T01:43:46;12.80;99.90
41922;DHT22;27609;51.002;5.354;2024-02-16T01:46:11;12.80;99.90
41922;DHT22;27609;51.002;5.354;2024-02-16T01:48:37;12.80;99.90
41922;DHT22;27609;51.002;5.354;2024-02-16T01:51:07;12.90;99.90
41922;DHT22;27609;51.002;5.354;2024-02-16T01:53:34;12.70;99.90
41922;DHT22;27609;51.002;5.354;2024-02-16T01:56:02;12.70;99.90
41922;DHT22;27609;51.002;5.354;2024-02-16T01:58:27;12.70;99.90
41922;DHT22;27609;51.002;5.354;2024-02-16T02:00:53;12.80;99.90
41922;DHT22;27609;51.002;5.354;2024-02-16T02:03:20;12.70;99.90
41922;DHT22;27609;51.002;5.354;2024-02-16T02:05:46;12.70;99.90
41922;DHT22;27609;51.002;5.354;2024-02-16T02:08:13;12.80;99.90
41922;DHT22;27609;51.002;5.354;2024-02-16T02:10:38;12.70;99.90
41922;DHT22;27609;51.002;5.354;2024-02-16T02:13:04;12.80;99.90
41922;DHT22;27609;51.002;5.354;2024-02-16T02:15:30;12.90;99.90
41922;DHT22;27609;51.002;5.354;2024-02-16T02:17:56;12.80;99.90
41922;DHT22;27609;51.002;5.354;2024-02-16T02:20:23;12.90;99.90
41922;DHT22;27609;51.002;5.354;2024-02-16T02:22:49;12.90;99.90
41922;DHT22;27609;51.002;5.354;2024-02-16T02:25:15;12.90;99.90
41922;DHT22;27609;51.002;5.354;2024-02-16T02:27:40;12.90;99.90
41922;DHT22;27609;51.002;5.354;2024-02-16T02:30:06;12.90;99.90
41922;DHT22;27609;51.002;5.354;2024-02-16T02:32:32;13.00;99.90
41922;DHT22;27609;51.002;5.354;2024-02-16T02:34:58;13.00;99.90
41922;DHT22;27609;51.002;5.354;2024-02-16T02:37:23;13.00;99.90
41922;DHT22;27609;51.002;5.354;2024-02-16T02:39:49;13.00;99.90
41922;DHT22;27609;51.002;5.354;2024-02-16T02:42:15;12.90;99.90
41922;DHT22;27609;51.002;5.354;2024-02-16T02:44:40;13.00;99.90
41922;DHT22;27609;51.002;5.354;2024-02-16T02:47:07;13.00;99.90
41922;DHT22;27609;51.002;5.354;2024-02-16T02:49:33;13.00;99.90
41922;DHT22;27609;51.002;5.354;2024-02-16T02:52:00;13.00;99.90
41922;DHT22;27609;51.002;5.354;2024-02-16T02:54:26;12.90;99.90
41922;DHT22;27609;51.002;5.354;2024-02-16T02:56:52;12.90;99.90
41922;DHT22;27609;51.002;5.354;2024-02-16T02:59:18;12.80;99.90
41922;DHT22;27609;51.002;5.354;2024-02-16T03:01:44;12.90;99.90
41922;DHT22;27609;51.002;5.354;2024-02-16T03:04:11;12.90;99.90
41922;DHT22;27609;51.002;5.354;2024-02-16T03:06:36;13.00;99.90
41922;DHT22;27609;51.002;5.354;2024-02-16T03:09:02;13.00;99.90
41922;DHT22;27609;51.002;5.354;2024-02-16T03:11:28;13.00;99.90
41922;DHT22;27609;51.002;5.354;2024-02-16T03:13:53;13.00;99.90
41922;DHT22;27609;51.002;5.354;2024-02-16T03:16:19;13.10;99.90
41922;DHT22;27609;51.002;5.354;2024-02-16T03:18:45;13.20;99.90
41922;DHT22;27609;51.002;5.354;2024-02-16T03:21:14;13.10;99.90
41922;DHT22;27609;51.002;5.354;2024-02-16T03:23:43;13.20;99.90
41922;DHT22;27609;51.002;5.354;2024-02-16T03:26:19;13.10;99.90
41922;DHT22;27609;51.002;5.354;2024-02-16T03:28:48;13.20;99.90
41922;DHT22;27609;51.002;5.354;2024-02-16T03:31:22;13.20;99.90
41922;DHT22;27609;51.002;5.354;2024-02-16T03:33:49;13.20;99.90
41922;DHT22;27609;51.002;5.354;2024-02-16T03:36:15;13.30;99.90
41922;DHT22;27609;51.002;5.354;2024-02-16T03:38:45;13.30;99.90
41922;DHT22;27609;51.002;5.354;2024-02-16T03:41:18;13.30;99.90
41922;DHT22;27609;51.002;5.354;2024-02-16T03:43:44;13.30;99.90
41922;DHT22;27609;51.002;5.354;2024-02-16T03:46:10;13.30;99.90
41922;DHT22;27609;51.002;5.354;2024-02-16T03:48:36;13.30;99.90
41922;DHT22;27609;51.002;5.354;2024-02-16T03:51:02;13.30;99.90
41922;DHT22;27609;51.002;5.354;2024-02-16T03:53:28;13.20;99.90
41922;DHT22;27609;51.002;5.354;2024-02-16T03:55:54;13.30;99.90
41922;DHT22;27609;51.002;5.354;2024-02-16T03:58:21;13.30;99.90
41922;DHT22;27609;51.002;5.354;2024-02-16T04:00:47;13.30;99.90
41922;DHT22;27609;51.002;5.354;2024-02-16T04:03:14;13.40;99.90
41922;DHT22;27609;51.002;5.354;2024-02-16T04:05:40;13.30;99.90
41922;DHT22;27609;51.002;5.354;2024-02-16T04:08:07;13.30;99.90
41922;DHT22;27609;51.002;5.354;2024-02-16T04:10:33;13.40;99.90
41922;DHT22;27609;51.002;5.354;2024-02-16T04:12:59;13.40;99.90
41922;DHT22;27609;51.002;5.354;2024-02-16T04:15:26;13.50;99.90
41922;DHT22;27609;51.002;5.354;2024-02-16T04:17:52;13.40;99.90
41922;DHT22;27609;51.002;5.354;2024-02-16T04:20:18;13.40;99.90
41922;DHT22;27609;51.002;5.354;2024-02-16T04:22:44;13.40;99.90
41922;DHT22;27609;51.002;5.354;2024-02-16T04:25:11;13.40;99.90
41922;DHT22;27609;51.002;5.354;2024-02-16T04:27:37;13.40;99.90
41922;DHT22;27609;51.002;5.354;2024-02-16T04:30:03;13.40;99.90
41922;DHT22;27609;51.002;5.354;2024-02-16T04:32:29;13.40;99.90
41922;DHT22;27609;51.002;5.354;2024-02-16T04:34:55;13.40;99.90
41922;DHT22;27609;51.002;5.354;2024-02-16T04:37:26;13.40;99.90
41922;DHT22;27609;51.002;5.354;2024-02-16T04:39:52;13.40;99.90
41922;DHT22;27609;51.002;5.354;2024-02-16T04:42:18;13.40;99.90
41922;DHT22;27609;51.002;5.354;2024-02-16T04:44:44;13.40;99.90
41922;DHT22;27609;51.002;5.354;2024-02-16T04:47:10;13.40;99.90
41922;DHT22;27609;51.002;5.354;2024-02-16T04:49:36;13.50;99.90
41922;DHT22;27609;51.002;5.354;2024-02-16T04:52:02;13.50;99.90
41922;DHT22;27609;51.002;5.354;2024-02-16T04:54:29;13.50;99.90
41922;DHT22;27609;51.002;5.354;2024-02-16T04:56:54;13.50;99.90
41922;DHT22;27609;51.002;5.354;2024-02-16T04:59:20;13.50;99.90
41922;DHT22;27609;51.002;5.354;2024-02-16T05:01:46;13.50;99.90
41922;DHT22;27609;51.002;5.354;2024-02-16T05:04:12;13.50;99.90
41922;DHT22;27609;51.002;5.354;2024-02-16T05:06:45;13.40;99.90
41922;DHT22;27609;51.002;5.354;2024-02-16T05:09:12;13.50;99.90
41922;DHT22;27609;51.002;5.354;2024-02-16T05:11:38;13.60;99.90
41922;DHT22;27609;51.002;5.354;2024-02-16T05:14:03;13.50;99.90
41922;DHT22;27609;51.002;5.354;2024-02-16T05:16:29;13.50;99.90
41922;DHT22;27609;51.002;5.354;2024-02-16T05:18:58;13.60;99.90
41922;DHT22;27609;51.002;5.354;2024-02-16T05:21:24;13.60;99.90
41922;DHT22;27609;51.002;5.354;2024-02-16T05:23:49;13.60;99.90
41922;DHT22;27609;51.002;5.354;2024-02-16T05:26:15;13.50;99.90
41922;DHT22;27609;51.002;5.354;2024-02-16T05:28:41;13.50;99.90
41922;DHT22;27609;51.002;5.354;2024-02-16T05:31:14;13.50;99.90
41922;DHT22;27609;51.002;5.354;2024-02-16T05:33:41;13.50;99.90
41922;DHT22;27609;51.002;5.354;2024-02-16T05:36:07;13.50;99.90
41922;DHT22;27609;51.002;5.354;2024-02-16T05:38:32;13.40;99.90
41922;DHT22;27609;51.002;5.354;2024-02-16T05:41:06;13.40;99.90
41922;DHT22;27609;51.002;5.354;2024-02-16T05:43:32;13.40;99.90
41922;DHT22;27609;51.002;5.354;2024-02-16T05:45:59;13.40;99.90
41922;DHT22;27609;51.002;5.354;2024-02-16T05:48:24;13.30;99.90
41922;DHT22;27609;51.002;5.354;2024-02-16T05:50:52;13.30;99.90
41922;DHT22;27609;51.002;5.354;2024-02-16T05:53:18;13.30;99.90
41922;DHT22;27609;51.002;5.354;2024-02-16T05:55:44;13.30;99.90
41922;DHT22;27609;51.002;5.354;2024-02-16T05:58:10;13.40;99.90
41922;DHT22;27609;51.002;5.354;2024-02-16T06:00:37;13.40;99.90
41922;DHT22;27609;51.002;5.354;2024-02-16T06:03:03;13.40;99.90
41922;DHT22;27609;51.002;5.354;2024-02-16T06:05:28;13.40;99.90
41922;DHT22;27609;51.002;5.354;2024-02-16T06:07:54;13.30;99.90
41922;DHT22;27609;51.002;5.354;2024-02-16T06:10:22;13.30;99.90
41922;DHT22;27609;51.002;5.354;2024-02-16T06:12:48;13.20;99.90
41922;DHT22;27609;51.002;5.354;2024-02-16T06:15:14;13.20;99.90
41922;DHT22;27609;51.002;5.354;2024-02-16T06:17:40;13.10;99.90
41922;DHT22;27609;51.002;5.354;2024-02-16T06:20:06;13.20;99.90
41922;DHT22;27609;51.002;5.354;2024-02-16T06:22:35;13.10;99.90
41922;DHT22;27609;51.002;5.354;2024-02-16T06:25:01;13.20;99.90
41922;DHT22;27609;51.002;5.354;2024-02-16T06:27:26;13.20;99.90
41922;DHT22;27609;51.002;5.354;2024-02-16T06:29:52;13.20;99.90
41922;DHT22;27609;51.002;5.354;2024-02-16T06:32:18;13.20;99.90
41922;DHT22;27609;51.002;5.354;2024-02-16T06:34:44;13.20;99.90
41922;DHT22;27609;51.002;5.354;2024-02-16T06:37:11;13.20;99.90
41922;DHT22;27609;51.002;5.354;2024-02-16T06:39:37;13.10;99.90
41922;DHT22;27609;51.002;5.354;2024-02-16T06:42:02;13.10;99.90
41922;DHT22;27609;51.002;5.354;2024-02-16T06:44:29;13.20;99.90
41922;DHT22;27609;51.002;5.354;2024-02-16T06:46:55;13.20;99.90
41922;DHT22;27609;51.002;5.354;2024-02-16T06:49:20;13.20;99.90
41922;DHT22;27609;51.002;5.354;2024-02-16T06:51:46;13.20;99.90
41922;DHT22;27609;51.002;5.354;2024-02-16T06:54:12;13.20;99.90
41922;DHT22;27609;51.002;5.354;2024-02-16T06:56:38;13.20;99.90
41922;DHT22;27609;51.002;5.354;2024-02-16T06:59:03;13.20;99.90
41922;DHT22;27609;51.002;5.354;2024-02-16T07:01:29;13.20;99.90
41922;DHT22;27609;51.002;5.354;2024-02-16T07:03:55;13.20;99.90
41922;DHT22;27609;51.002;5.354;2024-02-16T07:06:21;13.20;99.90
41922;DHT22;27609;51.002;5.354;2024-02-16T07:08:46;13.20;99.90
41922;DHT22;27609;51.002;5.354;2024-02-16T07:11:12;13.30;99.90
41922;DHT22;27609;51.002;5.354;2024-02-16T07:13:39;13.30;99.90
41922;DHT22;27609;51.002;5.354;2024-02-16T07:16:05;13.30;99.90
41922;DHT22;27609;51.002;5.354;2024-02-16T07:18:33;13.30;99.90
41922;DHT22;27609;51.002;5.354;2024-02-16T07:20:58;13.30;99.90
41922;DHT22;27609;51.002;5.354;2024-02-16T07:23:25;13.30;99.90
41922;DHT22;27609;51.002;5.354;2024-02-16T07:25:50;13.40;99.90
41922;DHT22;27609;51.002;5.354;2024-02-16T07:28:16;13.40;99.90
41922;DHT22;27609;51.002;5.354;2024-02-16T07:30:42;13.50;99.90
41922;DHT22;27609;51.002;5.354;2024-02-16T07:33:08;13.40;99.90
41922;DHT22;27609;51.002;5.354;2024-02-16T07:35:34;13.40;99.90
41922;DHT22;27609;51.002;5.354;2024-02-16T07:38:01;13.40;99.90
41922;DHT22;27609;51.002;5.354;2024-02-16T07:40:27;13.40;99.90
41922;DHT22;27609;51.002;5.354;2024-02-16T07:42:53;13.50;99.90
41922;DHT22;27609;51.002;5.354;2024-02-16T07:45:19;13.50;99.90
41922;DHT22;27609;51.002;5.354;2024-02-16T07:47:46;13.60;99.90
41922;DHT22;27609;51.002;5.354;2024-02-16T07:50:12;13.60;99.90
41922;DHT22;27609;51.002;5.354;2024-02-16T07:52:38;13.60;99.90
41922;DHT22;27609;51.002;5.354;2024-02-16T07:55:06;13.60;99.90
41922;DHT22;27609;51.002;5.354;2024-02-16T07:57:32;13.60;99.90
41922;DHT22;27609;51.002;5.354;2024-02-16T07:59:57;13.70;99.90
41922;DHT22;27609;51.002;5.354;2024-02-16T08:02:23;13.70;99.90
41922;DHT22;27609;51.002;5.354;2024-02-16T08:04:49;13.60;99.90
41922;DHT22;27609;51.002;5.354;2024-02-16T08:07:16;13.70;99.90
41922;DHT22;27609;51.002;5.354;2024-02-16T08:09:45;13.70;99.90
41922;DHT22;27609;51.002;5.354;2024-02-16T08:12:14;13.70;99.90
41922;DHT22;27609;51.002;5.354;2024-02-16T08:14:40;13.80;99.90
41922;DHT22;27609;51.002;5.354;2024-02-16T08:17:07;13.80;99.90
41922;DHT22;27609;51.002;5.354;2024-02-16T08:19:37;13.80;99.90
41922;DHT22;27609;51.002;5.354;2024-02-16T08:22:04;14.00;99.90
41922;DHT22;27609;51.002;5.354;2024-02-16T08:24:36;14.00;99.90
41922;DHT22;27609;51.002;5.354;2024-02-16T08:27:02;14.10;99.90
41922;DHT22;27609;51.002;5.354;2024-02-16T08:29:29;14.10;99.90
41922;DHT22;27609;51.002;5.354;2024-02-16T08:31:55;14.00;99.90
41922;DHT22;27609;51.002;5.354;2024-02-16T08:34:21;13.90;99.90
41922;DHT22;27609;51.002;5.354;2024-02-16T08:36:48;13.90;99.90
41922;DHT22;27609;51.002;5.354;2024-02-16T08:39:15;13.90;99.90
41922;DHT22;27609;51.002;5.354;2024-02-16T08:41:41;13.90;99.90
41922;DHT22;27609;51.002;5.354;2024-02-16T08:44:07;13.90;99.90
41922;DHT22;27609;51.002;5.354;2024-02-16T08:46:36;14.00;99.90
41922;DHT22;27609;51.002;5.354;2024-02-16T08:49:02;14.20;99.90
41922;DHT22;27609;51.002;5.354;2024-02-16T08:51:28;14.20;99.90
41922;DHT22;27609;51.002;5.354;2024-02-16T08:53:54;14.10;99.90
41922;DHT22;27609;51.002;5.354;2024-02-16T08:56:20;14.60;99.90
41922;DHT22;27609;51.002;5.354;2024-02-16T08:58:45;14.00;99.90
41922;DHT22;27609;51.002;5.354;2024-02-16T09:01:11;14.00;99.90
41922;DHT22;27609;51.002;5.354;2024-02-16T09:03:37;14.00;99.90
41922;DHT22;27609;51.002;5.354;2024-02-16T09:06:05;14.00;99.90
41922;DHT22;27609;51.002;5.354;2024-02-16T09:08:32;14.10;99.90
41922;DHT22;27609;51.002;5.354;2024-02-16T09:11:03;14.10;99.90
41922;DHT22;27609;51.002;5.354;2024-02-16T09:13:35;14.20;99.90
41922;DHT22;27609;51.002;5.354;2024-02-16T09:16:02;14.40;99.90
41922;DHT22;27609;51.002;5.354;2024-02-16T09:18:31;14.50;99.90
41922;DHT22;27609;51.002;5.354;2024-02-16T09:20:57;14.40;99.90
41922;DHT22;27609;51.002;5.354;2024-02-16T09:23:23;14.60;99.90
41922;DHT22;27609;51.002;5.354;2024-02-16T09:25:48;14.70;99.90
41922;DHT22;27609;51.002;5.354;2024-02-16T09:28:16;14.70;99.90
41922;DHT22;27609;51.002;5.354;2024-02-16T09:30:43;14.60;99.90
41922;DHT22;27609;51.002;5.354;2024-02-16T09:33:09;14.60;99.90
41922;DHT22;27609;51.002;5.354;2024-02-16T09:35:35;14.50;99.90
41922;DHT22;27609;51.002;5.354;2024-02-16T09:38:00;14.60;99.90
41922;DHT22;27609;51.002;5.354;2024-02-16T09:40:26;14.60;99.90
41922;DHT22;27609;51.002;5.354;2024-02-16T09:42:52;14.70;99.90
41922;DHT22;27609;51.002;5.354;2024-02-16T09:45:18;14.80;99.90
41922;DHT22;27609;51.002;5.354;2024-02-16T09:47:45;14.70;99.90
41922;DHT22;27609;51.002;5.354;2024-02-16T09:50:14;14.70;99.90
41922;DHT22;27609;51.002;5.354;2024-02-16T09:52:41;14.60;99.90
41922;DHT22;27609;51.002;5.354;2024-02-16T09:55:12;14.60;99.90
41922;DHT22;27609;51.002;5.354;2024-02-16T09:57:38;14.70;99.90
41922;DHT22;27609;51.002;5.354;2024-02-16T10:00:04;14.60;99.90
41922;DHT22;27609;51.002;5.354;2024-02-16T10:02:40;14.60;99.90
41922;DHT22;27609;51.002;5.354;2024-02-16T10:05:29;14.70;99.90
41922;DHT22;27609;51.002;5.354;2024-02-16T10:07:56;14.70;99.90
41922;DHT22;27609;51.002;5.354;2024-02-16T10:10:25;14.90;99.90
41922;DHT22;27609;51.002;5.354;2024-02-16T10:13:04;14.90;99.90
41922;DHT22;27609;51.002;5.354;2024-02-16T10:15:31;14.90;99.90
41922;DHT22;27609;51.002;5.354;2024-02-16T10:18:04;14.90;99.90
41922;DHT22;27609;51.002;5.354;2024-02-16T10:20:32;14.90;99.90
41922;DHT22;27609;51.002;5.354;2024-02-16T10:23:11;14.80;99.90
41922;DHT22;27609;51.002;5.354;2024-02-16T10:25:38;14.90;99.90
41922;DHT22;27609;51.002;5.354;2024-02-16T10:28:08;14.80;99.90
41922;DHT22;27609;51.002;5.354;2024-02-16T10:30:38;14.80;99.90
41922;DHT22;27609;51.002;5.354;2024-02-16T10:33:05;14.70;99.90
41922;DHT22;27609;51.002;5.354;2024-02-16T10:35:34;14.50;99.90
41922;DHT22;27609;51.002;5.354;2024-02-16T10:38:01;14.30;99.90
41922;DHT22;27609;51.002;5.354;2024-02-16T10:40:34;14.10;99.90
41922;DHT22;27609;51.002;5.354;2024-02-16T10:43:04;13.90;99.90
41922;DHT22;27609;51.002;5.354;2024-02-16T10:45:35;13.70;99.90
41922;DHT22;27609;51.002;5.354;2024-02-16T10:48:06;13.70;99.90
41922;DHT22;27609;51.002;5.354;2024-02-16T10:50:34;13.60;99.90
41922;DHT22;27609;51.002;5.354;2024-02-16T10:53:15;13.50;99.90
41922;DHT22;27609;51.002;5.354;2024-02-16T10:55:44;13.60;99.90
41922;DHT22;27609;51.002;5.354;2024-02-16T10:58:11;13.60;99.90
41922;DHT22;27609;51.002;5.354;2024-02-16T11:00:49;13.50;99.90
41922;DHT22;27609;51.002;5.354;2024-02-16T11:03:17;13.60;99.90
41922;DHT22;27609;51.002;5.354;2024-02-16T11:05:42;13.50;99.90
41922;DHT22;27609;51.002;5.354;2024-02-16T11:08:15;13.50;99.90
41922;DHT22;27609;51.002;5.354;2024-02-16T11:10:53;13.60;99.90
41922;DHT22;27609;51.002;5.354;2024-02-16T11:13:23;13.70;99.90
41922;DHT22;27609;51.002;5.354;2024-02-16T11:15:57;13.70;99.90
41922;DHT22;27609;51.002;5.354;2024-02-16T11:18:24;13.80;99.90
41922;DHT22;27609;51.002;5.354;2024-02-16T11:20:50;13.80;99.90
41922;DHT22;27609;51.002;5.354;2024-02-16T11:23:15;13.80;99.90
41922;DHT22;27609;51.002;5.354;2024-02-16T11:25:50;13.80;99.90
41922;DHT22;27609;51.002;5.354;2024-02-16T11:28:18;13.80;99.90
41922;DHT22;27609;51.002;5.354;2024-02-16T11:30:44;13.80;99.90
41922;DHT22;27609;51.002;5.354;2024-02-16T11:33:13;13.80;99.90
41922;DHT22;27609;51.002;5.354;2024-02-16T11:35:39;13.90;99.90
41922;DHT22;27609;51.002;5.354;2024-02-16T11:38:05;13.90;99.90
41922;DHT22;27609;51.002;5.354;2024-02-16T11:40:31;14.00;99.90
41922;DHT22;27609;51.002;5.354;2024-02-16T11:43:00;14.00;99.90
41922;DHT22;27609;51.002;5.354;2024-02-16T11:45:26;14.10;99.90
41922;DHT22;27609;51.002;5.354;2024-02-16T11:48:03;14.20;99.90
41922;DHT22;27609;51.002;5.354;2024-02-16T11:50:29;14.30;99.90
41922;DHT22;27609;51.002;5.354;2024-02-16T11:52:55;14.20;99.90
41922;DHT22;27609;51.002;5.354;2024-02-16T11:55:21;14.20;99.90
41922;DHT22;27609;51.002;5.354;2024-02-16T11:57:47;14.20;99.90
41922;DHT22;27609;51.002;5.354;2024-02-16T12:00:16;14.20;99.90
41922;DHT22;27609;51.002;5.354;2024-02-16T12:02:42;14.20;99.90
41922;DHT22;27609;51.002;5.354;2024-02-16T12:05:08;14.30;99.90
41922;DHT22;27609;51.002;5.354;2024-02-16T12:07:37;14.40;99.90
41922;DHT22;27609;51.002;5.354;2024-02-16T12:10:06;14.40;99.90
41922;DHT22;27609;51.002;5.354;2024-02-16T12:12:32;14.40;99.90
41922;DHT22;27609;51.002;5.354;2024-02-16T12:14:58;14.40;99.90
41922;DHT22;27609;51.002;5.354;2024-02-16T12:17:24;14.40;99.90
41922;DHT22;27609;51.002;5.354;2024-02-16T12:19:51;14.50;99.90
41922;DHT22;27609;51.002;5.354;2024-02-16T12:22:18;14.50;99.90
41922;DHT22;27609;51.002;5.354;2024-02-16T12:24:48;14.40;99.90
41922;DHT22;27609;51.002;5.354;2024-02-16T12:27:15;14.30;99.90
41922;DHT22;27609;51.002;5.354;2024-02-16T12:29:41;14.30;99.90
41922;DHT22;27609;51.002;5.354;2024-02-16T12:32:07;14.30;99.90
41922;DHT22;27609;51.002;5.354;2024-02-16T12:34:36;14.40;99.90
41922;DHT22;27609;51.002;5.354;2024-02-16T12:37:05;14.30;99.90
41922;DHT22;27609;51.002;5.354;2024-02-16T12:39:35;14.20;99.90
41922;DHT22;27609;51.002;5.354;2024-02-16T12:42:01;14.20;99.90
41922;DHT22;27609;51.002;5.354;2024-02-16T12:44:27;14.20;99.90
41922;DHT22;27609;51.002;5.354;2024-02-16T12:46:52;14.20;99.90
41922;DHT22;27609;51.002;5.354;2024-02-16T12:49:18;14.10;99.90
41922;DHT22;27609;51.002;5.354;2024-02-16T12:51:48;14.00;99.90
41922;DHT22;27609;51.002;5.354;2024-02-16T12:54:14;13.90;99.90
41922;DHT22;27609;51.002;5.354;2024-02-16T12:56:47;13.90;99.90
41922;DHT22;27609;51.002;5.354;2024-02-16T12:59:14;13.90;99.90
41922;DHT22;27609;51.002;5.354;2024-02-16T13:01:39;13.80;99.90
41922;DHT22;27609;51.002;5.354;2024-02-16T13:04:06;13.70;99.90
41922;DHT22;27609;51.002;5.354;2024-02-16T13:06:32;13.70;99.90
41922;DHT22;27609;51.002;5.354;2024-02-16T13:08:58;13.70;99.90
41922;DHT22;27609;51.002;5.354;2024-02-16T13:11:25;13.60;99.90
41922;DHT22;27609;51.002;5.354;2024-02-16T13:13:50;13.60;99.90
41922;DHT22;27609;51.002;5.354;2024-02-16T13:16:17;13.60;99.90
41922;DHT22;27609;51.002;5.354;2024-02-16T13:18:43;13.60;99.90
41922;DHT22;27609;51.002;5.354;2024-02-16T13:21:08;13.60;99.90
41922;DHT22;27609;51.002;5.354;2024-02-16T13:23:34;13.60;99.90
41922;DHT22;27609;51.002;5.354;2024-02-16T13:26:00;13.70;99.90
41922;DHT22;27609;51.002;5.354;2024-02-16T13:28:25;13.60;99.90
41922;DHT22;27609;51.002;5.354;2024-02-16T13:30:51;13.50;99.90
41922;DHT22;27609;51.002;5.354;2024-02-16T13:33:17;13.50;99.90
41922;DHT22;27609;51.002;5.354;2024-02-16T13:35:42;13.60;99.90
41922;DHT22;27609;51.002;5.354;2024-02-16T13:38:08;13.50;99.90
41922;DHT22;27609;51.002;5.354;2024-02-16T13:40:34;13.40;99.90
41922;DHT22;27609;51.002;5.354;2024-02-16T13:43:01;13.50;99.90
41922;DHT22;27609;51.002;5.354;2024-02-16T13:45:49;13.40;99.90
41922;DHT22;27609;51.002;5.354;2024-02-16T13:48:16;13.30;99.90
41922;DHT22;27609;51.002;5.354;2024-02-16T13:50:46;13.30;99.90
41922;DHT22;27609;51.002;5.354;2024-02-16T13:53:13;13.40;99.90
41922;DHT22;27609;51.002;5.354;2024-02-16T13:55:38;13.50;99.90
41922;DHT22;27609;51.002;5.354;2024-02-16T13:58:04;13.50;99.90
41922;DHT22;27609;51.002;5.354;2024-02-16T14:00:30;13.70;99.90
41922;DHT22;27609;51.002;5.354;2024-02-16T14:02:56;13.70;99.90
41922;DHT22;27609;51.002;5.354;2024-02-16T14:05:21;13.80;99.90
41922;DHT22;27609;51.002;5.354;2024-02-16T14:07:47;13.70;99.90
41922;DHT22;27609;51.002;5.354;2024-02-16T14:10:14;13.60;99.90
41922;DHT22;27609;51.002;5.354;2024-02-16T14:12:41;13.60;99.90
41922;DHT22;27609;51.002;5.354;2024-02-16T14:15:07;13.50;99.90
41922;DHT22;27609;51.002;5.354;2024-02-16T14:17:33;13.60;99.90
41922;DHT22;27609;51.002;5.354;2024-02-16T14:19:58;13.70;99.90
41922;DHT22;27609;51.002;5.354;2024-02-16T14:22:24;13.80;99.90
41922;DHT22;27609;51.002;5.354;2024-02-16T14:24:50;13.70;99.90
41922;DHT22;27609;51.002;5.354;2024-02-16T14:27:16;13.60;99.90
41922;DHT22;27609;51.002;5.354;2024-02-16T14:29:42;13.60;99.90
41922;DHT22;27609;51.002;5.354;2024-02-16T14:32:07;13.50;99.90
41922;DHT22;27609;51.002;5.354;2024-02-16T14:34:33;13.60;99.90
41922;DHT22;27609;51.002;5.354;2024-02-16T14:36:59;13.70;99.90
41922;DHT22;27609;51.002;5.354;2024-02-16T14:39:25;13.80;99.90
41922;DHT22;27609;51.002;5.354;2024-02-16T14:41:51;14.00;99.90
41922;DHT22;27609;51.002;5.354;2024-02-16T14:44:16;14.00;99.90
41922;DHT22;27609;51.002;5.354;2024-02-16T14:46:42;14.00;99.90
41922;DHT22;27609;51.002;5.354;2024-02-16T14:49:08;14.10;99.90
41922;DHT22;27609;51.002;5.354;2024-02-16T14:51:34;14.20;99.90
41922;DHT22;27609;51.002;5.354;2024-02-16T14:54:00;14.10;99.90
41922;DHT22;27609;51.002;5.354;2024-02-16T14:56:26;14.20;99.90
41922;DHT22;27609;51.002;5.354;2024-02-16T14:58:52;14.20;99.90
41922;DHT22;27609;51.002;5.354;2024-02-16T15:01:17;14.30;99.90
41922;DHT22;27609;51.002;5.354;2024-02-16T15:03:43;14.30;99.90
41922;DHT22;27609;51.002;5.354;2024-02-16T15:06:09;14.40;99.90
41922;DHT22;27609;51.002;5.354;2024-02-16T15:08:34;14.30;99.90
41922;DHT22;27609;51.002;5.354;2024-02-16T15:11:00;14.30;99.90
41922;DHT22;27609;51.002;5.354;2024-02-16T15:13:26;14.20;99.90
41922;DHT22;27609;51.002;5.354;2024-02-16T15:15:52;14.30;99.90
41922;DHT22;27609;51.002;5.354;2024-02-16T15:18:18;14.20;99.90
41922;DHT22;27609;51.002;5.354;2024-02-16T15:20:45;14.20;99.90
41922;DHT22;27609;51.002;5.354;2024-02-16T15:23:11;14.10;99.90
41922;DHT22;27609;51.002;5.354;2024-02-16T15:25:37;14.10;99.90
41922;DHT22;27609;51.002;5.354;2024-02-16T15:28:03;14.20;99.90